ヨハネスブルグ の空港の天気 - METARとTAF

ヨハネスブルグ/O.R.タンボ国際空港 ( FAOR / JNB ) - 南アフリカ ヨハネスブルグ
飛行場実況気象(Metar)
観測時間10/25 06:00 SAST (10/25 04:00 UTC)
風向・風速西 2m/s
視程10km以上
天気現象
なし
気温18℃
湿度56%
気圧1024hPa
METARFAOR 250400Z 26003KT 220V290 CAVOK 18/09 Q1024 NOSIG
過去の天気等 Google飛行場航空写真 Wunderground天気予報

過去48時間のMETAR

飛行場予報(TAF)
発表時間: 10/25 00:00 SAST (10/24 22:00 UTC)
予報対象時間: 25日2時 SAST ~ 26日8時 SAST
風向・風速不定 2m/s
視程10km以上
なし
25日14時 SAST ~ 25日16時 SAST に 確率 30% で一時的に
少しの塔状積雲 雲底高度 1830m
25日16時 SAST ~ 26日2時 SAST に 確率 30% で一時的に
風向・風速西南西 8m/s
天気現象弱い雷雨
少しの積乱雲 雲底高度 1680m
TAF FAOR 242200Z 2500/2606 VRB03KT CAVOK TX30/2513Z TN15/2503Z
PROB30 TEMPO 2512/2514 FEW060TCU
PROB30 TEMPO 2514/2524 24015KT -TSRA FEW055CB